sensor_id;sensor_type;location;lat;lon;timestamp;temperature;humidity
11559;DHT22;5835;42.930;25.178;2022-12-18T00:00:59;8.50;99.90
11559;DHT22;5835;42.930;25.178;2022-12-18T00:03:29;8.60;99.90
11559;DHT22;5835;42.930;25.178;2022-12-18T00:05:56;8.90;99.90
11559;DHT22;5835;42.930;25.178;2022-12-18T00:08:25;8.80;98.00
11559;DHT22;5835;42.930;25.178;2022-12-18T00:10:53;8.60;71.40
11559;DHT22;5835;42.930;25.178;2022-12-18T00:13:21;8.40;77.40
11559;DHT22;5835;42.930;25.178;2022-12-18T00:15:49;8.30;98.30
11559;DHT22;5835;42.930;25.178;2022-12-18T00:18:16;8.20;99.90
11559;DHT22;5835;42.930;25.178;2022-12-18T00:20:44;8.10;99.90
11559;DHT22;5835;42.930;25.178;2022-12-18T00:23:11;8.10;99.90
11559;DHT22;5835;42.930;25.178;2022-12-18T00:25:40;8.10;99.90
11559;DHT22;5835;42.930;25.178;2022-12-18T00:28:08;8.00;99.90
11559;DHT22;5835;42.930;25.178;2022-12-18T00:30:35;7.90;99.90
11559;DHT22;5835;42.930;25.178;2022-12-18T00:33:03;7.90;99.90
11559;DHT22;5835;42.930;25.178;2022-12-18T00:35:31;7.90;99.90
11559;DHT22;5835;42.930;25.178;2022-12-18T00:37:59;7.90;99.90
11559;DHT22;5835;42.930;25.178;2022-12-18T00:40:27;8.00;99.90
11559;DHT22;5835;42.930;25.178;2022-12-18T00:42:56;7.90;99.90
11559;DHT22;5835;42.930;25.178;2022-12-18T00:45:26;7.90;99.90
11559;DHT22;5835;42.930;25.178;2022-12-18T00:47:55;8.00;99.90
11559;DHT22;5835;42.930;25.178;2022-12-18T00:50:24;8.00;99.90
11559;DHT22;5835;42.930;25.178;2022-12-18T00:52:52;8.00;99.90
11559;DHT22;5835;42.930;25.178;2022-12-18T00:55:19;8.00;99.90
11559;DHT22;5835;42.930;25.178;2022-12-18T00:57:47;8.00;99.90
11559;DHT22;5835;42.930;25.178;2022-12-18T01:00:16;8.00;99.90
11559;DHT22;5835;42.930;25.178;2022-12-18T01:02:44;8.00;99.90
11559;DHT22;5835;42.930;25.178;2022-12-18T01:05:13;8.10;99.90
11559;DHT22;5835;42.930;25.178;2022-12-18T01:07:40;8.20;99.90
11559;DHT22;5835;42.930;25.178;2022-12-18T01:10:10;8.20;99.90
11559;DHT22;5835;42.930;25.178;2022-12-18T01:12:38;8.30;99.90
11559;DHT22;5835;42.930;25.178;2022-12-18T01:15:07;8.30;99.90
11559;DHT22;5835;42.930;25.178;2022-12-18T01:17:36;8.50;99.90
11559;DHT22;5835;42.930;25.178;2022-12-18T01:20:04;8.70;99.90
11559;DHT22;5835;42.930;25.178;2022-12-18T01:22:32;8.80;99.90
11559;DHT22;5835;42.930;25.178;2022-12-18T01:25:01;9.00;96.00
11559;DHT22;5835;42.930;25.178;2022-12-18T01:27:28;9.10;96.20
11559;DHT22;5835;42.930;25.178;2022-12-18T01:29:56;9.00;99.90
11559;DHT22;5835;42.930;25.178;2022-12-18T01:32:23;8.80;99.90
11559;DHT22;5835;42.930;25.178;2022-12-18T01:34:52;8.50;98.40
11559;DHT22;5835;42.930;25.178;2022-12-18T01:37:20;8.30;99.90
11559;DHT22;5835;42.930;25.178;2022-12-18T01:39:47;8.10;99.90
11559;DHT22;5835;42.930;25.178;2022-12-18T01:42:16;8.00;99.90
11559;DHT22;5835;42.930;25.178;2022-12-18T01:45:02;8.10;99.90
11559;DHT22;5835;42.930;25.178;2022-12-18T01:47:34;8.10;99.90
11559;DHT22;5835;42.930;25.178;2022-12-18T01:50:07;8.20;99.90
11559;DHT22;5835;42.930;25.178;2022-12-18T01:52:35;8.30;99.90
11559;DHT22;5835;42.930;25.178;2022-12-18T01:55:06;8.40;99.90
11559;DHT22;5835;42.930;25.178;2022-12-18T01:57:34;8.50;99.90
11559;DHT22;5835;42.930;25.178;2022-12-18T02:00:05;8.60;99.90
11559;DHT22;5835;42.930;25.178;2022-12-18T02:02:33;8.40;95.70
11559;DHT22;5835;42.930;25.178;2022-12-18T02:05:04;8.30;98.00
11559;DHT22;5835;42.930;25.178;2022-12-18T02:07:41;8.20;99.90
11559;DHT22;5835;42.930;25.178;2022-12-18T02:10:15;8.10;99.90
11559;DHT22;5835;42.930;25.178;2022-12-18T02:12:49;8.00;99.90
11559;DHT22;5835;42.930;25.178;2022-12-18T02:15:26;7.90;99.90
11559;DHT22;5835;42.930;25.178;2022-12-18T02:17:58;7.80;99.90
11559;DHT22;5835;42.930;25.178;2022-12-18T02:20:33;7.80;99.90
11559;DHT22;5835;42.930;25.178;2022-12-18T02:23:09;7.70;99.90
11559;DHT22;5835;42.930;25.178;2022-12-18T02:26:04;7.60;99.90
11559;DHT22;5835;42.930;25.178;2022-12-18T02:28:37;7.60;99.90
11559;DHT22;5835;42.930;25.178;2022-12-18T02:31:10;7.50;99.90
11559;DHT22;5835;42.930;25.178;2022-12-18T02:33:39;7.50;99.90
11559;DHT22;5835;42.930;25.178;2022-12-18T02:36:08;7.50;99.90
11559;DHT22;5835;42.930;25.178;2022-12-18T02:38:37;7.50;99.90
11559;DHT22;5835;42.930;25.178;2022-12-18T02:41:07;7.50;99.90
11559;DHT22;5835;42.930;25.178;2022-12-18T02:43:34;7.50;99.90
11559;DHT22;5835;42.930;25.178;2022-12-18T02:46:27;7.50;99.90
11559;DHT22;5835;42.930;25.178;2022-12-18T02:49:01;7.40;99.90
11559;DHT22;5835;42.930;25.178;2022-12-18T02:51:34;7.40;99.90
11559;DHT22;5835;42.930;25.178;2022-12-18T02:54:08;7.30;99.90
11559;DHT22;5835;42.930;25.178;2022-12-18T02:56:45;7.30;99.90
11559;DHT22;5835;42.930;25.178;2022-12-18T02:59:16;7.20;99.90
11559;DHT22;5835;42.930;25.178;2022-12-18T03:01:51;7.20;99.90
11559;DHT22;5835;42.930;25.178;2022-12-18T03:04:26;7.20;99.90
11559;DHT22;5835;42.930;25.178;2022-12-18T03:06:58;7.10;99.90
11559;DHT22;5835;42.930;25.178;2022-12-18T03:09:31;7.20;99.90
11559;DHT22;5835;42.930;25.178;2022-12-18T03:12:06;7.10;99.90
11559;DHT22;5835;42.930;25.178;2022-12-18T03:14:54;7.10;99.90
11559;DHT22;5835;42.930;25.178;2022-12-18T03:17:26;7.00;99.90
11559;DHT22;5835;42.930;25.178;2022-12-18T03:19:56;7.00;99.90
11559;DHT22;5835;42.930;25.178;2022-12-18T03:22:27;7.00;99.90
11559;DHT22;5835;42.930;25.178;2022-12-18T03:24:59;7.00;99.90
11559;DHT22;5835;42.930;25.178;2022-12-18T03:27:31;6.90;99.90
11559;DHT22;5835;42.930;25.178;2022-12-18T03:30:02;6.80;99.90
11559;DHT22;5835;42.930;25.178;2022-12-18T03:32:38;6.80;99.90
11559;DHT22;5835;42.930;25.178;2022-12-18T03:35:08;6.80;99.90
11559;DHT22;5835;42.930;25.178;2022-12-18T03:37:38;6.80;99.90
11559;DHT22;5835;42.930;25.178;2022-12-18T03:40:07;6.70;99.90
11559;DHT22;5835;42.930;25.178;2022-12-18T03:42:43;6.70;99.90
11559;DHT22;5835;42.930;25.178;2022-12-18T03:45:18;6.70;99.90
11559;DHT22;5835;42.930;25.178;2022-12-18T03:47:55;6.60;99.90
11559;DHT22;5835;42.930;25.178;2022-12-18T03:50:33;6.60;99.90
11559;DHT22;5835;42.930;25.178;2022-12-18T03:53:13;6.60;99.90
11559;DHT22;5835;42.930;25.178;2022-12-18T03:55:45;6.50;99.90
11559;DHT22;5835;42.930;25.178;2022-12-18T03:58:18;6.60;99.90
11559;DHT22;5835;42.930;25.178;2022-12-18T04:00:48;6.50;99.90
11559;DHT22;5835;42.930;25.178;2022-12-18T04:03:19;6.50;99.90
11559;DHT22;5835;42.930;25.178;2022-12-18T04:05:48;6.40;99.90
11559;DHT22;5835;42.930;25.178;2022-12-18T04:08:17;6.40;99.90
11559;DHT22;5835;42.930;25.178;2022-12-18T04:10:45;6.30;99.90
11559;DHT22;5835;42.930;25.178;2022-12-18T04:13:22;6.30;99.90
11559;DHT22;5835;42.930;25.178;2022-12-18T04:15:49;6.20;99.90
11559;DHT22;5835;42.930;25.178;2022-12-18T04:18:18;6.20;99.90
11559;DHT22;5835;42.930;25.178;2022-12-18T04:20:46;6.20;99.90
11559;DHT22;5835;42.930;25.178;2022-12-18T04:23:13;6.10;99.90
11559;DHT22;5835;42.930;25.178;2022-12-18T04:25:41;6.10;99.90
11559;DHT22;5835;42.930;25.178;2022-12-18T04:28:09;6.10;99.90
11559;DHT22;5835;42.930;25.178;2022-12-18T04:30:38;6.10;99.90
11559;DHT22;5835;42.930;25.178;2022-12-18T04:33:09;6.10;99.90
11559;DHT22;5835;42.930;25.178;2022-12-18T04:35:36;6.10;99.90
11559;DHT22;5835;42.930;25.178;2022-12-18T04:38:05;6.10;99.90
11559;DHT22;5835;42.930;25.178;2022-12-18T04:40:34;6.10;99.90
11559;DHT22;5835;42.930;25.178;2022-12-18T04:43:02;6.20;99.90
11559;DHT22;5835;42.930;25.178;2022-12-18T04:45:30;6.20;99.90
11559;DHT22;5835;42.930;25.178;2022-12-18T04:48:00;6.30;99.90
11559;DHT22;5835;42.930;25.178;2022-12-18T04:50:28;6.20;99.90
11559;DHT22;5835;42.930;25.178;2022-12-18T04:52:56;6.30;99.90
11559;DHT22;5835;42.930;25.178;2022-12-18T04:55:24;6.30;99.90
11559;DHT22;5835;42.930;25.178;2022-12-18T04:57:51;6.20;99.90
11559;DHT22;5835;42.930;25.178;2022-12-18T05:00:19;6.20;99.90
11559;DHT22;5835;42.930;25.178;2022-12-18T05:02:47;6.20;99.90
11559;DHT22;5835;42.930;25.178;2022-12-18T05:05:16;6.20;99.90
11559;DHT22;5835;42.930;25.178;2022-12-18T05:07:43;6.30;99.90
11559;DHT22;5835;42.930;25.178;2022-12-18T05:10:11;6.20;99.90
11559;DHT22;5835;42.930;25.178;2022-12-18T05:12:39;6.20;99.90
11559;DHT22;5835;42.930;25.178;2022-12-18T05:15:24;6.20;99.90
11559;DHT22;5835;42.930;25.178;2022-12-18T05:17:52;6.30;99.90
11559;DHT22;5835;42.930;25.178;2022-12-18T05:20:21;6.30;99.90
11559;DHT22;5835;42.930;25.178;2022-12-18T05:22:48;6.30;99.90
11559;DHT22;5835;42.930;25.178;2022-12-18T05:25:16;6.30;99.90
11559;DHT22;5835;42.930;25.178;2022-12-18T05:27:43;6.30;99.90
11559;DHT22;5835;42.930;25.178;2022-12-18T05:30:12;6.30;99.90
11559;DHT22;5835;42.930;25.178;2022-12-18T05:32:40;6.40;99.90
11559;DHT22;5835;42.930;25.178;2022-12-18T05:35:09;6.40;99.90
11559;DHT22;5835;42.930;25.178;2022-12-18T05:37:38;6.40;99.90
11559;DHT22;5835;42.930;25.178;2022-12-18T05:40:07;6.30;99.90
11559;DHT22;5835;42.930;25.178;2022-12-18T05:42:34;6.20;99.90
11559;DHT22;5835;42.930;25.178;2022-12-18T05:45:02;6.10;99.90
11559;DHT22;5835;42.930;25.178;2022-12-18T05:47:30;6.00;99.90
11559;DHT22;5835;42.930;25.178;2022-12-18T05:49:58;6.00;99.90
11559;DHT22;5835;42.930;25.178;2022-12-18T05:52:25;6.00;99.90
11559;DHT22;5835;42.930;25.178;2022-12-18T05:54:54;6.00;99.90
11559;DHT22;5835;42.930;25.178;2022-12-18T05:57:22;5.90;99.90
11559;DHT22;5835;42.930;25.178;2022-12-18T05:59:49;5.90;99.90
11559;DHT22;5835;42.930;25.178;2022-12-18T06:02:17;5.90;99.90
11559;DHT22;5835;42.930;25.178;2022-12-18T06:04:46;5.90;99.90
11559;DHT22;5835;42.930;25.178;2022-12-18T06:07:14;5.90;99.90
11559;DHT22;5835;42.930;25.178;2022-12-18T06:09:41;5.80;99.90
11559;DHT22;5835;42.930;25.178;2022-12-18T06:12:10;5.90;99.90
11559;DHT22;5835;42.930;25.178;2022-12-18T06:14:38;5.90;99.90
11559;DHT22;5835;42.930;25.178;2022-12-18T06:17:06;5.90;99.90
11559;DHT22;5835;42.930;25.178;2022-12-18T06:19:33;5.90;99.90
11559;DHT22;5835;42.930;25.178;2022-12-18T06:22:01;5.80;99.90
11559;DHT22;5835;42.930;25.178;2022-12-18T06:24:29;5.90;99.90
11559;DHT22;5835;42.930;25.178;2022-12-18T06:26:56;5.90;99.90
11559;DHT22;5835;42.930;25.178;2022-12-18T06:29:25;5.90;99.90
11559;DHT22;5835;42.930;25.178;2022-12-18T06:31:53;6.00;99.90
11559;DHT22;5835;42.930;25.178;2022-12-18T06:34:21;6.00;99.90
11559;DHT22;5835;42.930;25.178;2022-12-18T06:36:49;6.00;99.90
11559;DHT22;5835;42.930;25.178;2022-12-18T06:39:16;5.90;99.90
11559;DHT22;5835;42.930;25.178;2022-12-18T06:41:44;6.00;99.90
11559;DHT22;5835;42.930;25.178;2022-12-18T06:44:12;6.00;99.90
11559;DHT22;5835;42.930;25.178;2022-12-18T06:46:41;6.00;99.90
11559;DHT22;5835;42.930;25.178;2022-12-18T06:49:09;6.00;99.90
11559;DHT22;5835;42.930;25.178;2022-12-18T06:51:36;6.10;99.90
11559;DHT22;5835;42.930;25.178;2022-12-18T06:54:04;6.00;99.90
11559;DHT22;5835;42.930;25.178;2022-12-18T06:56:32;6.10;99.90
11559;DHT22;5835;42.930;25.178;2022-12-18T06:58:59;6.20;99.90
11559;DHT22;5835;42.930;25.178;2022-12-18T07:01:30;6.20;99.90
11559;DHT22;5835;42.930;25.178;2022-12-18T07:03:58;6.20;99.90
11559;DHT22;5835;42.930;25.178;2022-12-18T07:06:26;6.20;99.90
11559;DHT22;5835;42.930;25.178;2022-12-18T07:08:54;6.30;99.90
11559;DHT22;5835;42.930;25.178;2022-12-18T07:11:22;6.40;99.90
11559;DHT22;5835;42.930;25.178;2022-12-18T07:13:49;6.50;99.90
11559;DHT22;5835;42.930;25.178;2022-12-18T07:16:19;6.50;99.90
11559;DHT22;5835;42.930;25.178;2022-12-18T07:18:47;6.60;99.90
11559;DHT22;5835;42.930;25.178;2022-12-18T07:21:17;6.70;99.90
11559;DHT22;5835;42.930;25.178;2022-12-18T07:23:45;6.70;99.90
11559;DHT22;5835;42.930;25.178;2022-12-18T07:26:15;6.70;99.90
11559;DHT22;5835;42.930;25.178;2022-12-18T07:28:43;6.70;99.90
11559;DHT22;5835;42.930;25.178;2022-12-18T07:31:12;6.70;98.70
11559;DHT22;5835;42.930;25.178;2022-12-18T07:33:40;6.70;97.50
11559;DHT22;5835;42.930;25.178;2022-12-18T07:36:10;6.70;99.90
11559;DHT22;5835;42.930;25.178;2022-12-18T07:38:39;6.70;95.10
11559;DHT22;5835;42.930;25.178;2022-12-18T07:41:08;6.70;96.80
11559;DHT22;5835;42.930;25.178;2022-12-18T07:43:37;6.70;94.30
11559;DHT22;5835;42.930;25.178;2022-12-18T07:46:05;6.80;99.90
11559;DHT22;5835;42.930;25.178;2022-12-18T07:48:33;6.80;99.90
11559;DHT22;5835;42.930;25.178;2022-12-18T07:51:01;6.80;95.10
11559;DHT22;5835;42.930;25.178;2022-12-18T07:53:30;6.80;92.70
11559;DHT22;5835;42.930;25.178;2022-12-18T07:56:00;6.90;96.30
11559;DHT22;5835;42.930;25.178;2022-12-18T07:58:28;6.90;74.90
11559;DHT22;5835;42.930;25.178;2022-12-18T08:01:03;6.90;88.90
11559;DHT22;5835;42.930;25.178;2022-12-18T08:03:31;6.90;54.60
11559;DHT22;5835;42.930;25.178;2022-12-18T08:06:00;6.90;52.30
11559;DHT22;5835;42.930;25.178;2022-12-18T08:08:27;6.90;38.00
11559;DHT22;5835;42.930;25.178;2022-12-18T08:10:55;7.00;29.30
11559;DHT22;5835;42.930;25.178;2022-12-18T08:13:24;7.00;1.00
11559;DHT22;5835;42.930;25.178;2022-12-18T08:15:58;7.10;1.00
11559;DHT22;5835;42.930;25.178;2022-12-18T08:18:26;7.10;1.00
11559;DHT22;5835;42.930;25.178;2022-12-18T08:20:54;7.10;1.00
11559;DHT22;5835;42.930;25.178;2022-12-18T08:23:22;7.20;1.00
11559;DHT22;5835;42.930;25.178;2022-12-18T08:25:50;7.10;1.00
11559;DHT22;5835;42.930;25.178;2022-12-18T08:28:17;7.10;1.00
11559;DHT22;5835;42.930;25.178;2022-12-18T08:30:46;7.10;1.00
11559;DHT22;5835;42.930;25.178;2022-12-18T08:33:18;7.10;1.00
11559;DHT22;5835;42.930;25.178;2022-12-18T08:35:45;7.00;1.00
11559;DHT22;5835;42.930;25.178;2022-12-18T08:38:13;7.20;1.00
11559;DHT22;5835;42.930;25.178;2022-12-18T08:40:41;7.20;1.00
11559;DHT22;5835;42.930;25.178;2022-12-18T08:43:09;7.20;1.00
11559;DHT22;5835;42.930;25.178;2022-12-18T08:45:56;7.30;1.00
11559;DHT22;5835;42.930;25.178;2022-12-18T08:48:24;7.30;99.90
11559;DHT22;5835;42.930;25.178;2022-12-18T08:50:55;7.30;99.90
11559;DHT22;5835;42.930;25.178;2022-12-18T08:53:23;7.30;1.00
11559;DHT22;5835;42.930;25.178;2022-12-18T08:55:50;7.40;99.90
11559;DHT22;5835;42.930;25.178;2022-12-18T08:58:18;7.30;10.90
11559;DHT22;5835;42.930;25.178;2022-12-18T09:00:45;7.40;92.70
11559;DHT22;5835;42.930;25.178;2022-12-18T09:03:15;7.50;99.90
11559;DHT22;5835;42.930;25.178;2022-12-18T09:05:43;7.40;99.90
11559;DHT22;5835;42.930;25.178;2022-12-18T09:08:13;7.50;99.90
11559;DHT22;5835;42.930;25.178;2022-12-18T09:10:42;7.50;1.00
11559;DHT22;5835;42.930;25.178;2022-12-18T09:13:10;7.50;1.00
11559;DHT22;5835;42.930;25.178;2022-12-18T09:15:41;7.50;99.90
11559;DHT22;5835;42.930;25.178;2022-12-18T09:18:09;7.70;99.90
11559;DHT22;5835;42.930;25.178;2022-12-18T09:20:38;7.60;99.90
11559;DHT22;5835;42.930;25.178;2022-12-18T09:23:06;7.50;99.90
11559;DHT22;5835;42.930;25.178;2022-12-18T09:25:34;7.60;1.00
11559;DHT22;5835;42.930;25.178;2022-12-18T09:28:03;7.60;1.00
11559;DHT22;5835;42.930;25.178;2022-12-18T09:30:31;7.50;1.00
11559;DHT22;5835;42.930;25.178;2022-12-18T09:33:00;7.60;1.00
11559;DHT22;5835;42.930;25.178;2022-12-18T09:35:30;7.60;1.00
11559;DHT22;5835;42.930;25.178;2022-12-18T09:37:59;7.50;7.90
11559;DHT22;5835;42.930;25.178;2022-12-18T09:40:29;7.60;1.00
11559;DHT22;5835;42.930;25.178;2022-12-18T09:43:03;7.60;99.90
11559;DHT22;5835;42.930;25.178;2022-12-18T09:45:34;7.70;99.90
11559;DHT22;5835;42.930;25.178;2022-12-18T09:48:04;7.60;99.90
11559;DHT22;5835;42.930;25.178;2022-12-18T09:50:35;7.70;99.90
11559;DHT22;5835;42.930;25.178;2022-12-18T09:53:11;7.50;99.90
11559;DHT22;5835;42.930;25.178;2022-12-18T09:55:43;7.70;99.90
11559;DHT22;5835;42.930;25.178;2022-12-18T09:58:17;7.70;99.90
11559;DHT22;5835;42.930;25.178;2022-12-18T10:00:46;7.70;1.00
11559;DHT22;5835;42.930;25.178;2022-12-18T10:03:15;7.50;1.00
11559;DHT22;5835;42.930;25.178;2022-12-18T10:05:46;7.50;1.00
11559;DHT22;5835;42.930;25.178;2022-12-18T10:08:23;7.50;1.00
11559;DHT22;5835;42.930;25.178;2022-12-18T10:10:53;7.40;1.00
11559;DHT22;5835;42.930;25.178;2022-12-18T10:13:24;7.50;1.00
11559;DHT22;5835;42.930;25.178;2022-12-18T10:16:03;7.60;1.50
11559;DHT22;5835;42.930;25.178;2022-12-18T10:18:59;7.60;1.00
11559;DHT22;5835;42.930;25.178;2022-12-18T10:21:34;7.50;1.00
11559;DHT22;5835;42.930;25.178;2022-12-18T10:24:14;7.50;1.00
11559;DHT22;5835;42.930;25.178;2022-12-18T10:26:52;7.40;99.90
11559;DHT22;5835;42.930;25.178;2022-12-18T10:29:19;7.40;99.90
11559;DHT22;5835;42.930;25.178;2022-12-18T10:31:47;7.50;99.90
11559;DHT22;5835;42.930;25.178;2022-12-18T10:34:14;7.60;99.90
11559;DHT22;5835;42.930;25.178;2022-12-18T10:36:42;7.40;99.90
11559;DHT22;5835;42.930;25.178;2022-12-18T10:39:19;7.40;99.90
11559;DHT22;5835;42.930;25.178;2022-12-18T10:41:48;7.40;99.90
11559;DHT22;5835;42.930;25.178;2022-12-18T10:44:19;7.30;99.90
11559;DHT22;5835;42.930;25.178;2022-12-18T10:46:49;7.20;99.90
11559;DHT22;5835;42.930;25.178;2022-12-18T10:49:26;7.20;99.90
11559;DHT22;5835;42.930;25.178;2022-12-18T10:52:11;7.30;99.90
11559;DHT22;5835;42.930;25.178;2022-12-18T10:54:48;7.30;99.90
11559;DHT22;5835;42.930;25.178;2022-12-18T10:57:28;7.30;99.90
11559;DHT22;5835;42.930;25.178;2022-12-18T10:59:58;7.30;99.90
11559;DHT22;5835;42.930;25.178;2022-12-18T11:02:28;7.40;99.90
11559;DHT22;5835;42.930;25.178;2022-12-18T11:05:00;7.30;99.90
11559;DHT22;5835;42.930;25.178;2022-12-18T11:07:48;7.50;99.90
11559;DHT22;5835;42.930;25.178;2022-12-18T11:10:19;7.40;99.90
11559;DHT22;5835;42.930;25.178;2022-12-18T11:12:47;7.50;99.90
11559;DHT22;5835;42.930;25.178;2022-12-18T11:15:18;7.40;99.90
11559;DHT22;5835;42.930;25.178;2022-12-18T11:17:48;7.40;99.90
11559;DHT22;5835;42.930;25.178;2022-12-18T11:20:27;7.40;99.90
11559;DHT22;5835;42.930;25.178;2022-12-18T11:22:59;7.50;99.90
11559;DHT22;5835;42.930;25.178;2022-12-18T11:25:29;7.40;99.90
11559;DHT22;5835;42.930;25.178;2022-12-18T11:28:00;7.40;99.90
11559;DHT22;5835;42.930;25.178;2022-12-18T11:30:29;7.50;99.90
11559;DHT22;5835;42.930;25.178;2022-12-18T11:33:01;7.60;99.90
11559;DHT22;5835;42.930;25.178;2022-12-18T11:35:39;7.50;99.90
11559;DHT22;5835;42.930;25.178;2022-12-18T11:38:17;7.50;99.90
11559;DHT22;5835;42.930;25.178;2022-12-18T11:40:51;7.50;99.90
11559;DHT22;5835;42.930;25.178;2022-12-18T11:43:26;7.50;99.90
11559;DHT22;5835;42.930;25.178;2022-12-18T11:45:59;7.60;99.90
11559;DHT22;5835;42.930;25.178;2022-12-18T11:48:29;7.70;99.90
11559;DHT22;5835;42.930;25.178;2022-12-18T11:50:59;7.70;99.90
11559;DHT22;5835;42.930;25.178;2022-12-18T11:53:30;7.70;99.90
11559;DHT22;5835;42.930;25.178;2022-12-18T11:56:07;7.60;99.90
11559;DHT22;5835;42.930;25.178;2022-12-18T11:58:47;7.80;99.90
11559;DHT22;5835;42.930;25.178;2022-12-18T12:01:27;7.70;99.90
11559;DHT22;5835;42.930;25.178;2022-12-18T12:04:20;7.80;99.90
11559;DHT22;5835;42.930;25.178;2022-12-18T12:07:01;7.70;99.90
11559;DHT22;5835;42.930;25.178;2022-12-18T12:09:35;7.60;99.90
11559;DHT22;5835;42.930;25.178;2022-12-18T12:12:22;7.60;99.90
11559;DHT22;5835;42.930;25.178;2022-12-18T12:15:01;7.70;99.90
11559;DHT22;5835;42.930;25.178;2022-12-18T12:17:40;7.70;99.90
11559;DHT22;5835;42.930;25.178;2022-12-18T12:20:18;7.70;99.90
11559;DHT22;5835;42.930;25.178;2022-12-18T12:22:54;7.70;99.90
11559;DHT22;5835;42.930;25.178;2022-12-18T12:25:33;7.60;99.90
11559;DHT22;5835;42.930;25.178;2022-12-18T12:28:15;7.70;99.90
11559;DHT22;5835;42.930;25.178;2022-12-18T12:30:55;7.60;99.90
11559;DHT22;5835;42.930;25.178;2022-12-18T12:33:36;7.60;99.90
11559;DHT22;5835;42.930;25.178;2022-12-18T12:36:14;7.60;99.90
11559;DHT22;5835;42.930;25.178;2022-12-18T12:38:46;7.60;99.90
11559;DHT22;5835;42.930;25.178;2022-12-18T12:41:20;7.60;99.90
11559;DHT22;5835;42.930;25.178;2022-12-18T12:44:13;7.70;99.90
11559;DHT22;5835;42.930;25.178;2022-12-18T12:46:42;7.60;99.90
11559;DHT22;5835;42.930;25.178;2022-12-18T12:49:14;7.60;99.90
11559;DHT22;5835;42.930;25.178;2022-12-18T12:51:45;7.70;99.90
11559;DHT22;5835;42.930;25.178;2022-12-18T12:54:17;7.60;99.90
11559;DHT22;5835;42.930;25.178;2022-12-18T12:56:50;7.60;99.90
11559;DHT22;5835;42.930;25.178;2022-12-18T12:59:25;7.60;99.90
11559;DHT22;5835;42.930;25.178;2022-12-18T13:02:02;7.60;99.90
11559;DHT22;5835;42.930;25.178;2022-12-18T13:04:36;7.70;99.90
11559;DHT22;5835;42.930;25.178;2022-12-18T13:07:14;7.70;99.90
11559;DHT22;5835;42.930;25.178;2022-12-18T13:10:14;7.50;99.90
11559;DHT22;5835;42.930;25.178;2022-12-18T13:12:56;7.60;99.90
11559;DHT22;5835;42.930;25.178;2022-12-18T13:15:32;7.50;99.90
11559;DHT22;5835;42.930;25.178;2022-12-18T13:18:15;7.60;99.90
11559;DHT22;5835;42.930;25.178;2022-12-18T13:20:45;7.50;99.90
11559;DHT22;5835;42.930;25.178;2022-12-18T13:23:33;7.60;99.90
11559;DHT22;5835;42.930;25.178;2022-12-18T13:26:30;7.50;99.90
11559;DHT22;5835;42.930;25.178;2022-12-18T13:28:58;7.40;99.90
11559;DHT22;5835;42.930;25.178;2022-12-18T13:34:40;7.10;99.90
11559;DHT22;5835;42.930;25.178;2022-12-18T13:37:44;7.00;99.90
11559;DHT22;5835;42.930;25.178;2022-12-18T13:43:29;6.90;99.90
11559;DHT22;5835;42.930;25.178;2022-12-18T13:46:03;6.80;99.90
11559;DHT22;5835;42.930;25.178;2022-12-18T13:48:33;6.90;99.90
11559;DHT22;5835;42.930;25.178;2022-12-18T13:51:05;6.80;99.90
11559;DHT22;5835;42.930;25.178;2022-12-18T13:53:39;6.80;99.90
11559;DHT22;5835;42.930;25.178;2022-12-18T13:56:09;6.80;99.90
11559;DHT22;5835;42.930;25.178;2022-12-18T13:58:42;6.70;99.90
11559;DHT22;5835;42.930;25.178;2022-12-18T14:01:22;6.70;99.90
11559;DHT22;5835;42.930;25.178;2022-12-18T14:03:50;6.80;99.90
11559;DHT22;5835;42.930;25.178;2022-12-18T14:06:20;6.70;99.90
11559;DHT22;5835;42.930;25.178;2022-12-18T14:08:48;6.70;99.90
11559;DHT22;5835;42.930;25.178;2022-12-18T14:11:20;6.60;99.90
11559;DHT22;5835;42.930;25.178;2022-12-18T14:13:49;6.50;99.90
11559;DHT22;5835;42.930;25.178;2022-12-18T14:16:17;6.50;99.90
11559;DHT22;5835;42.930;25.178;2022-12-18T14:18:48;6.40;99.90
11559;DHT22;5835;42.930;25.178;2022-12-18T14:21:23;6.30;99.90
11559;DHT22;5835;42.930;25.178;2022-12-18T14:24:04;6.30;99.90
11559;DHT22;5835;42.930;25.178;2022-12-18T14:26:32;6.30;99.90
11559;DHT22;5835;42.930;25.178;2022-12-18T14:29:01;6.30;99.90
11559;DHT22;5835;42.930;25.178;2022-12-18T14:31:30;6.30;99.90
11559;DHT22;5835;42.930;25.178;2022-12-18T14:33:57;6.30;99.90
11559;DHT22;5835;42.930;25.178;2022-12-18T14:36:27;6.30;99.90
11559;DHT22;5835;42.930;25.178;2022-12-18T14:38:57;6.20;99.90
11559;DHT22;5835;42.930;25.178;2022-12-18T14:41:25;6.20;99.90
11559;DHT22;5835;42.930;25.178;2022-12-18T14:43:54;6.20;99.90
11559;DHT22;5835;42.930;25.178;2022-12-18T14:46:34;6.10;99.90
11559;DHT22;5835;42.930;25.178;2022-12-18T14:49:04;6.10;99.90
11559;DHT22;5835;42.930;25.178;2022-12-18T14:51:33;6.10;99.90
11559;DHT22;5835;42.930;25.178;2022-12-18T14:54:03;6.10;99.90
11559;DHT22;5835;42.930;25.178;2022-12-18T14:56:37;6.00;99.90
11559;DHT22;5835;42.930;25.178;2022-12-18T14:59:14;6.00;99.90
11559;DHT22;5835;42.930;25.178;2022-12-18T15:01:46;6.00;99.90
11559;DHT22;5835;42.930;25.178;2022-12-18T15:04:25;5.90;99.90
11559;DHT22;5835;42.930;25.178;2022-12-18T15:07:07;5.90;99.90
11559;DHT22;5835;42.930;25.178;2022-12-18T15:09:36;5.90;99.90
11559;DHT22;5835;42.930;25.178;2022-12-18T15:12:04;5.90;99.90
11559;DHT22;5835;42.930;25.178;2022-12-18T15:14:39;5.80;99.90
11559;DHT22;5835;42.930;25.178;2022-12-18T15:17:16;5.80;99.90
11559;DHT22;5835;42.930;25.178;2022-12-18T15:19:45;5.80;99.90
11559;DHT22;5835;42.930;25.178;2022-12-18T15:22:23;5.80;99.90
11559;DHT22;5835;42.930;25.178;2022-12-18T15:24:52;5.70;99.90
11559;DHT22;5835;42.930;25.178;2022-12-18T15:27:28;5.70;99.90
11559;DHT22;5835;42.930;25.178;2022-12-18T15:30:19;5.60;99.90
11559;DHT22;5835;42.930;25.178;2022-12-18T15:32:48;5.60;1.00
11559;DHT22;5835;42.930;25.178;2022-12-18T15:35:19;5.50;1.00
11559;DHT22;5835;42.930;25.178;2022-12-18T15:37:49;5.50;1.00
11559;DHT22;5835;42.930;25.178;2022-12-18T15:40:18;5.40;1.00
11559;DHT22;5835;42.930;25.178;2022-12-18T15:42:46;5.40;1.00
11559;DHT22;5835;42.930;25.178;2022-12-18T15:45:31;5.40;1.00
11559;DHT22;5835;42.930;25.178;2022-12-18T15:48:03;5.30;1.00
11559;DHT22;5835;42.930;25.178;2022-12-18T15:50:32;5.30;88.20
11559;DHT22;5835;42.930;25.178;2022-12-18T15:53:01;5.30;41.10
11559;DHT22;5835;42.930;25.178;2022-12-18T15:55:28;5.30;99.90
11559;DHT22;5835;42.930;25.178;2022-12-18T15:58:13;5.30;99.90
11559;DHT22;5835;42.930;25.178;2022-12-18T16:00:40;5.30;99.90
11559;DHT22;5835;42.930;25.178;2022-12-18T16:03:09;5.20;99.90
11559;DHT22;5835;42.930;25.178;2022-12-18T16:05:37;5.20;99.90
11559;DHT22;5835;42.930;25.178;2022-12-18T16:08:06;5.20;99.90
11559;DHT22;5835;42.930;25.178;2022-12-18T16:10:33;5.20;99.90
11559;DHT22;5835;42.930;25.178;2022-12-18T16:13:02;5.20;1.00
11559;DHT22;5835;42.930;25.178;2022-12-18T16:15:29;5.10;1.00
11559;DHT22;5835;42.930;25.178;2022-12-18T16:17:57;5.10;99.90
11559;DHT22;5835;42.930;25.178;2022-12-18T16:20:24;5.00;99.90